Portada
METAR-TAF:

METAR-TAF

Aeroports :

Kastamonu, Turquia

latitud: 41-19-01N, longitud: 33-47-46E, altitud: 1073 m

Observació

L'informe es va fer fa 57 minuts, a les 05:50 UTC
Vent calma
Temperatura -2°C
Humitat 100%
Pressió 1010 hPa
Visibilitat: 0200 m
boira gebradora

METAR: LTAL 120550Z 00000KT 0200 R18/0200N FZFG VV001 M02/M02 Q1010

Hora: 09:47 (06:47 UTC)

Pronòstic

L'informe es va fer fa 2 hores i 7 minuts, a les 04:40 UTC
Pronòstic vàlid del 12 a les 06 UTC al 12 a les 15 UTC
Vent 2 kt amb direcció variable
Visibilitat: 0300 m
a una alçada de 100 ft
boira gebradora
Evolucionant progressivament
l' 12 a les 10 UTC al 12 a les 11 UTC
Visibilitat: 2200 m
Núvols disperses a una alçada de 800 ft
boirina

TAF: LTAL 120440Z 1206/1215 VRB02KT 0300 FZFG VV001 BECMG 1210/1211 2200 BR SCT008

Observacions i pronòstics meteorològics de més de 4000 aeroports (METAR i TAF).

Les estacions disponibles són els punts grocs i vermells al mapa.

Posi el ratolí al punt desitjat per veure el nom de l'estació.

Feu clic per veure les observacions i els pronòstics meteorològics.

Per canviar el mapa: feu clic els botons verds amb una creu de color negre per apropar; al botó verd amb un guió per allunyar la imatge; o en les fletxes verdes per a mapes adjacents.


METAR-TAF: